Time;durP1;ratioP1;P1;durP2;ratioP2;P2;SDS_P1;SDS_P2;PMS_P1;PMS_P2;Temp;Humidity;BMP_temperature;BMP_pressure;BME280_temperature;BME280_humidity;BME280_pressure;Samples;Min_cycle;Max_cycle;Signal;HPM_P1;HPM_P2
2023/06/27 00:03:51;;;;;;;2.50;2.27;;;19.90;97.90;;;;;;5003415;28;20541;-79
2023/06/27 00:11:00;;;;;;;2.67;1.90;;;19.90;98.40;;;;;;5066944;28;20528;-79
2023/06/27 00:14:24;;;;;;;;;;;;;;;;;;;;;
2023/06/27 00:24:29;;;;;;;2.20;2.00;;;19.80;99.10;;;;;;4984933;28;20561;-79
2023/06/27 00:33:43;;;;;;;4.00;2.47;;;19.80;99.90;;;;;;5051628;28;20461;-79
2023/06/27 00:39:41;;;;;;;3.10;2.13;;;19.80;99.90;;;;;;5055359;28;20904;-78
2023/06/27 00:45:22;;;;;;;1.90;1.80;;;19.80;99.90;;;;;;5098988;28;20451;-79
2023/06/27 00:48:03;;;;;;;5.60;2.43;;;19.80;99.90;;;;;;5100144;28;20464;-78
2023/06/27 00:51:31;;;;;;;3.73;2.40;;;19.80;99.90;;;;;;5100051;28;20972;-78
2023/06/27 00:54:31;;;;;;;5.80;2.20;;;19.80;99.90;;;;;;5075752;28;20459;-78
2023/06/27 00:57:33;;;;;;;4.53;2.50;;;19.70;99.90;;;;;;5097956;28;20562;-78
2023/06/27 01:06:49;;;;;;;2.50;2.30;;;19.60;99.90;;;;;;5104256;28;20451;-78
2023/06/27 01:12:52;;;;;;;3.00;2.10;;;19.60;99.90;;;;;;5100516;28;20886;-80
2023/06/27 01:15:52;;;;;;;5.00;2.87;;;19.60;99.90;;;;;;5110868;28;20479;-79
2023/06/27 01:19:03;;;;;;;3.27;2.13;;;19.60;99.90;;;;;;5109179;28;20471;-80
2023/06/27 01:27:31;;;;;;;3.77;2.70;;;19.60;99.90;;;;;;5085053;28;20440;-78
2023/06/27 01:29:59;;;;;;;3.53;2.60;;;19.60;99.90;;;;;;5093364;28;20451;-78
2023/06/27 01:32:47;;;;;;;3.83;2.53;;;19.60;99.90;;;;;;5099152;28;20539;-78
2023/06/27 01:35:35;;;;;;;5.03;2.33;;;19.70;99.90;;;;;;5101229;28;20458;-79
2023/06/27 01:38:18;;;;;;;3.03;2.60;;;19.70;99.90;;;;;;5102234;28;20439;-79
2023/06/27 01:40:58;;;;;;;4.23;2.50;;;19.70;99.90;;;;;;5102166;28;20541;-79
2023/06/27 01:43:31;;;;;;;4.07;2.80;;;19.60;99.90;;;;;;5100763;28;20491;-78
2023/06/27 01:46:23;;;;;;;4.53;2.73;;;19.70;99.90;;;;;;5104418;28;20424;-79
2023/06/27 01:49:00;;;;;;;2.70;2.50;;;19.60;99.90;;;;;;5102864;28;20453;-79
2023/06/27 01:54:55;;;;;;;5.23;2.53;;;19.60;99.90;;;;;;5102020;28;20467;-79
2023/06/27 01:57:53;;;;;;;3.80;2.43;;;19.60;99.90;;;;;;5101499;28;20980;-78
2023/06/27 02:04:30;;;;;;;;;;;;;;;;;;;;;
2023/06/27 02:07:43;;;;;;;3.50;2.40;;;19.50;99.90;;;;;;5019805;28;20560;-79
2023/06/27 02:10:21;;;;;;;2.40;2.20;;;19.40;99.90;;;;;;5014732;28;20525;-78
2023/06/27 02:32:14;;;;;;;2.90;2.20;;;19.30;99.90;;;;;;4786534;29;20823;-77
2023/06/27 02:38:12;;;;;;;3.00;2.40;;;19.20;99.90;;;;;;4979104;28;20447;-77
2023/06/27 02:44:52;;;;;;;3.50;2.93;;;19.20;99.90;;;;;;5015794;28;20498;-77
2023/06/27 02:58:11;;;;;;;4.37;2.60;;;19.10;99.90;;;;;;5012288;28;20440;-77
2023/06/27 03:01:23;;;;;;;7.90;2.27;;;19.00;99.90;;;;;;5076185;28;20953;-77
2023/06/27 03:11:24;;;;;;;3.90;2.37;;;19.00;99.90;;;;;;5052892;28;20444;-76
2023/06/27 03:24:16;;;;;;;3.00;2.40;;;18.90;99.90;;;;;;5095874;28;20470;-75
2023/06/27 03:34:08;;;;;;;3.00;2.67;;;18.90;99.90;;;;;;4971519;28;20463;-77
2023/06/27 03:40:30;;;;;;;2.90;2.00;;;18.80;99.90;;;;;;4963225;29;20474;-76
2023/06/27 03:46:51;;;;;;;6.23;2.93;;;18.70;99.90;;;;;;5026376;28;20488;-76
2023/06/27 03:52:29;;;;;;;9.30;2.70;;;18.60;99.90;;;;;;5115329;28;20462;-78
2023/06/27 03:55:22;;;;;;;2.87;2.50;;;18.60;99.90;;;;;;5115879;28;20453;-78
2023/06/27 03:58:07;;;;;;;3.90;2.37;;;18.60;99.90;;;;;;5114153;28;20819;-77
2023/06/27 04:01:11;;;;;;;3.20;2.13;;;18.60;99.90;;;;;;5124162;28;20443;-77
2023/06/27 04:06:46;;;;;;;4.83;2.40;;;18.60;99.90;;;;;;5115081;28;20833;-76
2023/06/27 04:09:22;;;;;;;3.07;2.10;;;18.50;99.90;;;;;;5115562;28;20476;-76
2023/06/27 04:11:52;;;;;;;2.50;2.20;;;18.50;99.90;;;;;;5114759;28;20929;-76
2023/06/27 04:14:49;;;;;;;3.83;2.67;;;18.60;99.90;;;;;;5115342;28;20788;-77
2023/06/27 04:17:50;;;;;;;3.23;2.40;;;18.60;99.90;;;;;;5118881;28;20466;-77
2023/06/27 04:20:30;;;;;;;4.90;2.63;;;18.50;99.90;;;;;;5113843;28;20509;-76
2023/06/27 04:23:25;;;;;;;10.37;2.80;;;18.60;99.90;;;;;;5099556;28;20490;-75
2023/06/27 04:26:47;;;;;;;3.53;1.90;;;18.70;99.90;;;;;;5100728;28;20526;-76
2023/06/27 04:30:03;;;;;;;;;;;;;;;;;;;;;
2023/06/27 04:54:00;;;;;;;3.30;2.60;;;18.60;99.90;;;;;;4957795;29;20498;-78
2023/06/27 04:57:05;;;;;;;2.57;2.37;;;18.50;99.90;;;;;;4966916;28;20453;-78
2023/06/27 05:02:44;;;;;;;2.80;2.40;;;18.50;99.90;;;;;;5051333;28;20453;-77
2023/06/27 05:14:18;;;;;;;7.00;2.57;;;18.40;99.90;;;;;;5086597;28;20455;-77
2023/06/27 05:17:10;;;;;;;5.57;2.57;;;18.50;99.90;;;;;;5092714;28;20410;-80
2023/06/27 05:19:58;;;;;;;4.70;2.90;;;18.50;99.90;;;;;;5091270;28;20450;-79
2023/06/27 05:22:54;;;;;;;5.30;2.77;;;18.60;99.90;;;;;;5086238;28;20558;-77
2023/06/27 05:25:38;;;;;;;3.67;2.40;;;18.60;99.90;;;;;;5085501;28;20961;-78
2023/06/27 05:32:10;;;;;;;;;;;;;;;;;;;;;
2023/06/27 05:35:02;;;;;;;4.53;2.60;;;18.90;99.90;;;;;;5083777;28;20440;-78
2023/06/27 05:37:47;;;;;;;5.23;2.60;;;18.90;99.90;;;;;;5086670;28;20563;-79
2023/06/27 05:40:53;;;;;;;4.67;2.77;;;18.90;99.90;;;;;;5087170;28;20460;-80
2023/06/27 05:47:19;;;;;;;4.87;2.67;;;18.90;99.90;;;;;;5089725;28;20489;-79
2023/06/27 05:52:48;;;;;;;4.30;3.27;;;19.20;99.90;;;;;;5082683;28;20534;-78
2023/06/27 05:55:34;;;;;;;3.70;2.43;;;19.10;99.90;;;;;;5083511;28;20453;-80
2023/06/27 05:58:12;;;;;;;4.73;2.67;;;19.20;99.90;;;;;;5084246;28;20444;-78
2023/06/27 06:00:51;;;;;;;6.93;2.70;;;19.20;99.90;;;;;;5084863;28;20433;-79
2023/06/27 06:03:19;;;;;;;5.37;2.90;;;19.10;99.90;;;;;;5079324;28;20491;-78
2023/06/27 06:05:57;;;;;;;2.87;2.67;;;19.10;99.90;;;;;;5079208;28;20441;-78
2023/06/27 06:08:36;;;;;;;3.77;2.80;;;19.10;99.90;;;;;;5082439;28;20552;-80
2023/06/27 06:11:05;;;;;;;5.07;2.53;;;19.10;99.90;;;;;;5084475;28;20445;-80
2023/06/27 06:13:38;;;;;;;3.50;2.57;;;19.30;99.90;;;;;;5082866;28;20494;-78
2023/06/27 06:16:08;;;;;;;3.07;2.10;;;19.40;99.90;;;;;;5080481;28;20502;-79
2023/06/27 06:18:38;;;;;;;3.53;2.33;;;19.50;99.90;;;;;;5085911;28;20437;-78
2023/06/27 06:21:37;;;;;;;2.30;2.10;;;19.60;99.90;;;;;;5095923;28;20808;-79
2023/06/27 06:24:36;;;;;;;4.10;2.47;;;19.60;99.90;;;;;;5103656;28;20495;-79
2023/06/27 06:27:28;;;;;;;3.47;1.97;;;19.60;99.90;;;;;;5103345;28;20479;-79
2023/06/27 06:30:08;;;;;;;4.40;2.70;;;19.70;99.90;;;;;;5102714;28;20539;-79
2023/06/27 06:35:20;;;;;;;3.10;2.23;;;20.00;99.90;;;;;;5101058;28;20471;-78
2023/06/27 06:37:49;;;;;;;5.10;3.03;;;19.80;99.90;;;;;;5110685;28;20440;-79
2023/06/27 06:40:21;;;;;;;4.13;2.37;;;19.60;99.90;;;;;;5109947;28;20448;-79
2023/06/27 06:42:50;;;;;;;2.73;2.50;;;19.80;99.90;;;;;;5109476;28;20470;-79
2023/06/27 06:45:19;;;;;;;3.80;2.80;;;20.00;99.90;;;;;;5110129;28;20507;-80
2023/06/27 06:48:00;;;;;;;;;;;;;;;;;;;;;
2023/06/27 06:50:47;;;;;;;3.70;2.60;;;20.40;99.90;;;;;;5110583;28;20436;-78
2023/06/27 06:53:20;;;;;;;4.53;3.57;;;20.60;99.90;;;;;;5111191;28;20486;-77
2023/06/27 06:55:57;;;;;;;5.33;3.00;;;20.60;99.90;;;;;;5112173;28;20433;-77
2023/06/27 06:58:33;;;;;;;3.17;2.03;;;20.80;99.90;;;;;;5111661;28;20423;-79
2023/06/27 07:01:10;;;;;;;4.43;2.67;;;20.90;99.90;;;;;;5110648;28;20459;-76
2023/06/27 07:03:41;;;;;;;3.00;2.27;;;20.90;99.90;;;;;;5111481;28;20466;-78
2023/06/27 07:06:11;;;;;;;5.33;2.57;;;21.10;99.90;;;;;;5110414;28;20429;-78
2023/06/27 07:08:41;;;;;;;4.87;2.30;;;21.20;99.90;;;;;;5111957;28;20553;-78
2023/06/27 07:11:10;;;;;;;2.73;2.37;;;21.30;99.90;;;;;;5112784;28;20463;-80
2023/06/27 07:13:39;;;;;;;3.90;2.43;;;21.10;99.90;;;;;;5112555;28;20468;-78
2023/06/27 07:16:09;;;;;;;6.07;2.53;;;20.70;99.90;;;;;;5113253;28;20448;-75
2023/06/27 07:18:39;;;;;;;4.03;2.70;;;20.50;99.90;;;;;;5112973;28;20439;-79
2023/06/27 07:23:58;;;;;;;3.00;2.80;;;20.80;99.90;;;;;;5111437;28;20474;-79
2023/06/27 07:26:26;;;;;;;6.00;3.00;;;21.00;99.90;;;;;;5110490;28;20903;-79
2023/06/27 07:28:57;;;;;;;3.07;2.70;;;21.20;99.90;;;;;;5112333;28;20467;-77
2023/06/27 07:31:25;;;;;;;2.40;2.20;;;21.20;99.90;;;;;;5110182;28;20455;-79
2023/06/27 07:33:54;;;;;;;4.27;2.50;;;21.20;99.90;;;;;;5108969;28;20472;-78
2023/06/27 07:36:23;;;;;;;4.40;2.40;;;21.30;99.90;;;;;;5108244;28;20447;-79
2023/06/27 07:38:52;;;;;;;2.87;2.60;;;21.60;99.90;;;;;;5106656;28;20475;-78
2023/06/27 07:41:24;;;;;;;3.10;2.30;;;21.30;99.90;;;;;;5104265;28;20543;-78
2023/06/27 07:43:53;;;;;;;3.40;2.30;;;21.40;99.90;;;;;;5102402;28;20471;-79
2023/06/27 07:46:24;;;;;;;4.20;2.43;;;21.70;99.90;;;;;;5103417;28;20447;-78
2023/06/27 07:48:54;;;;;;;7.93;2.70;;;21.90;99.90;;;;;;5103659;28;20484;-78
2023/06/27 07:51:24;;;;;;;3.40;2.23;;;21.90;99.90;;;;;;5104022;28;20452;-78
2023/06/27 07:54:02;;;;;;;3.67;2.30;;;21.70;99.90;;;;;;5108326;28;20468;-78
2023/06/27 07:56:49;;;;;;;3.80;2.43;;;22.00;99.90;;;;;;5111643;28;20431;-79
2023/06/27 07:59:33;;;;;;;3.30;2.03;;;21.80;99.90;;;;;;5112339;28;20436;-79
2023/06/27 08:02:12;;;;;;;2.73;2.20;;;21.60;99.90;;;;;;5112910;28;20520;-79
2023/06/27 08:05:12;;;;;;;;;;;;;;;;;;;;;
2023/06/27 08:07:45;;;;;;;4.67;2.53;;;21.20;99.90;;;;;;5110882;28;20696;-79
2023/06/27 08:10:29;;;;;;;4.10;2.27;;;21.50;99.90;;;;;;5110753;28;20547;-77
2023/06/27 08:13:12;;;;;;;4.60;2.80;;;21.60;99.90;;;;;;5111011;28;20434;-77
2023/06/27 08:15:40;;;;;;;4.63;2.83;;;21.40;99.90;;;;;;5112437;28;20465;-79
2023/06/27 08:18:09;;;;;;;3.50;2.43;;;21.40;99.90;;;;;;5111852;28;20521;-78
2023/06/27 08:20:37;;;;;;;3.30;2.20;;;21.60;99.90;;;;;;5111993;28;20492;-78
2023/06/27 08:23:08;;;;;;;5.60;2.87;;;21.70;99.90;;;;;;5110916;28;20481;-78
2023/06/27 08:25:50;;;;;;;4.17;2.70;;;21.60;99.90;;;;;;5114403;28;20396;-77
2023/06/27 08:28:22;;;;;;;3.70;2.77;;;21.80;99.90;;;;;;5115281;28;20536;-77
2023/06/27 08:31:03;;;;;;;4.03;2.50;;;22.20;99.90;;;;;;5120134;28;20451;-78
2023/06/27 08:33:47;;;;;;;4.90;2.73;;;22.50;99.90;;;;;;5120532;28;20462;-77
2023/06/27 08:36:16;;;;;;;2.83;2.33;;;22.60;99.90;;;;;;5118625;28;20867;-78
2023/06/27 08:38:46;;;;;;;2.70;2.50;;;22.40;99.90;;;;;;5112504;28;20443;-78
2023/06/27 08:41:22;;;;;;;4.00;2.43;;;21.70;99.90;;;;;;5112421;28;20444;-78
2023/06/27 08:47:11;;;;;;;5.20;2.90;;;22.10;99.90;;;;;;5097990;28;20434;-78
2023/06/27 08:50:06;;;;;;;9.13;2.77;;;22.50;99.90;;;;;;5113465;28;20459;-77
2023/06/27 08:53:25;;;;;;;5.17;2.70;;;22.90;99.90;;;;;;5110791;28;21024;-78
2023/06/27 08:56:23;;;;;;;3.40;2.37;;;22.90;99.90;;;;;;5110938;28;20547;-78
2023/06/27 09:02:29;;;;;;;4.07;2.37;;;22.90;99.80;;;;;;5099116;28;20431;-78
2023/06/27 09:05:42;;;;;;;2.57;2.13;;;22.90;99.40;;;;;;5110588;28;20449;-79
2023/06/27 09:08:42;;;;;;;5.00;2.60;;;22.60;99.50;;;;;;5109111;28;20545;-78
2023/06/27 09:11:34;;;;;;;2.80;2.60;;;22.90;99.60;;;;;;5107271;28;20470;-77
2023/06/27 09:14:09;;;;;;;4.00;2.77;;;23.20;99.00;;;;;;5107738;28;20478;-78
2023/06/27 09:20:21;;;;;;;2.63;2.43;;;23.10;99.00;;;;;;5107196;28;20432;-78
2023/06/27 09:23:10;;;;;;;3.37;2.30;;;23.20;98.40;;;;;;5071611;28;20467;-78
2023/06/27 09:25:49;;;;;;;6.73;2.53;;;23.10;98.70;;;;;;5107800;28;20421;-78
2023/06/27 09:28:23;;;;;;;4.60;3.00;;;23.10;98.80;;;;;;5106973;28;20482;-77
2023/06/27 09:31:12;;;;;;;3.73;2.63;;;23.10;98.70;;;;;;5107628;28;20525;-77
2023/06/27 09:33:45;;;;;;;5.23;3.20;;;23.10;98.60;;;;;;5104842;28;20479;-77
2023/06/27 09:36:54;;;;;;;5.60;2.50;;;22.60;99.00;;;;;;5101970;28;20845;-77
2023/06/27 09:39:49;;;;;;;3.47;2.60;;;22.80;99.30;;;;;;5101957;28;20445;-79
2023/06/27 09:42:36;;;;;;;9.23;3.10;;;22.90;99.10;;;;;;5106157;28;20498;-78
2023/06/27 09:45:22;;;;;;;4.77;2.40;;;22.80;99.10;;;;;;5105237;28;20451;-78
2023/06/27 09:47:55;;;;;;;4.07;2.77;;;22.90;98.20;;;;;;5103736;28;20444;-78
2023/06/27 09:50:39;;;;;;;2.97;2.37;;;22.90;98.40;;;;;;5107065;28;20454;-78
2023/06/27 09:53:23;;;;;;;3.20;2.47;;;23.40;97.20;;;;;;5105164;28;20442;-78
2023/06/27 09:55:56;;;;;;;2.87;2.43;;;23.90;96.20;;;;;;5102494;28;20446;-76
2023/06/27 09:58:34;;;;;;;5.30;2.90;;;24.00;96.10;;;;;;5100473;28;20429;-79
2023/06/27 10:01:13;;;;;;;2.97;2.40;;;23.70;96.00;;;;;;5102508;28;20431;-82
2023/06/27 10:03:52;;;;;;;2.73;2.00;;;23.70;96.40;;;;;;5100515;28;20475;-79
2023/06/27 10:09:13;;;;;;;4.93;2.50;;;24.10;95.60;;;;;;5100464;28;20463;-78
2023/06/27 10:11:45;;;;;;;3.93;2.70;;;24.20;95.70;;;;;;5098761;28;20413;-78
2023/06/27 10:14:24;;;;;;;3.03;2.83;;;23.90;95.80;;;;;;5097748;28;20470;-76
2023/06/27 10:17:05;;;;;;;4.10;2.20;;;24.00;94.50;;;;;;5099266;28;20473;-80
2023/06/27 10:19:39;;;;;;;7.43;3.00;;;23.50;94.50;;;;;;5099900;28;20427;-78
2023/06/27 10:22:15;;;;;;;3.07;2.50;;;23.80;93.80;;;;;;5098808;28;20463;-78
2023/06/27 10:25:00;;;;;;;2.97;2.50;;;23.70;93.60;;;;;;5099372;28;20447;-79
2023/06/27 10:27:35;;;;;;;4.83;2.47;;;24.10;93.60;;;;;;5098178;28;20457;-78
2023/06/27 10:30:16;;;;;;;4.10;2.03;;;24.30;93.30;;;;;;5098081;28;20479;-81
2023/06/27 10:32:53;;;;;;;8.90;2.70;;;24.60;93.60;;;;;;5098452;28;20451;-78
2023/06/27 10:35:29;;;;;;;2.10;1.90;;;24.70;93.00;;;;;;5098404;28;20450;-80
2023/06/27 10:38:17;;;;;;;3.70;2.23;;;24.60;93.00;;;;;;5097616;28;20567;-78
2023/06/27 10:41:12;;;;;;;6.97;2.70;;;24.40;93.50;;;;;;5098407;28;20460;-78
2023/06/27 10:43:42;;;;;;;7.33;2.50;;;23.90;93.20;;;;;;5077250;28;20495;-79
2023/06/27 10:46:23;;;;;;;2.40;2.03;;;23.90;93.00;;;;;;5080135;28;20441;-79
2023/06/27 10:49:04;;;;;;;4.60;2.50;;;23.80;93.20;;;;;;5079002;28;20485;-79
2023/06/27 10:51:43;;;;;;;2.57;2.20;;;24.00;92.80;;;;;;5078711;28;20497;-79
2023/06/27 10:54:19;;;;;;;4.57;4.10;;;24.40;92.90;;;;;;5086234;28;20524;-79
2023/06/27 10:57:00;;;;;;;3.47;2.93;;;24.90;92.70;;;;;;5101644;28;20443;-79
2023/06/27 10:59:33;;;;;;;6.53;2.60;;;24.60;92.00;;;;;;5104830;28;20429;-79
2023/06/27 11:02:13;;;;;;;3.97;2.17;;;24.50;92.30;;;;;;5105964;28;20461;-78
2023/06/27 11:04:47;;;;;;;3.60;2.40;;;25.10;92.00;;;;;;5109255;28;20547;-78
2023/06/27 11:07:24;;;;;;;4.60;2.50;;;25.30;91.20;;;;;;5112316;28;20459;-79
2023/06/27 11:10:13;;;;;;;5.63;2.20;;;24.80;92.00;;;;;;5106105;28;20506;-80
2023/06/27 11:13:23;;;;;;;4.33;2.47;;;24.10;92.00;;;;;;5103758;28;20472;-78
2023/06/27 11:16:11;;;;;;;4.27;2.67;;;;;;;;;;5096163;28;20451;-80
2023/06/27 11:18:42;;;;;;;4.50;2.17;;;;;;;;;;5102848;28;20912;-78
2023/06/27 11:21:17;;;;;;;3.17;2.50;;;;;;;;;;5102459;28;20893;-79
2023/06/27 11:24:04;;;;;;;2.57;2.37;;;;;;;;;;5101046;28;20467;-77
2023/06/27 11:26:53;;;;;;;3.00;2.40;;;;;;;;;;5100295;28;20518;-81
2023/06/27 11:29:32;;;;;;;4.80;3.30;;;;;;;;;;5099803;28;20475;-79
2023/06/27 11:35:11;;;;;;;3.83;3.07;;;;;;;;;;5100461;28;20557;-77
2023/06/27 11:37:46;;;;;;;3.20;2.90;;;;;;;;;;5099580;28;20478;-81
2023/06/27 11:40:30;;;;;;;3.00;2.60;;;;;;;;;;5099979;28;20447;-78
2023/06/27 11:43:06;;;;;;;3.70;2.67;;;;;;;;;;5100179;28;20488;-78
2023/06/27 11:45:47;;;;;;;5.17;2.13;;;;;;;;;;5099000;28;20450;-77
2023/06/27 11:50:59;;;;;;;2.37;2.17;;;;;;;;;;5093662;28;20809;-79
2023/06/27 11:53:28;;;;;;;3.50;2.40;;;;;;;;;;5099440;28;20452;-77
2023/06/27 11:56:07;;;;;;;3.63;2.30;;;;;;;;;;5099802;28;20550;-79
2023/06/27 11:58:38;;;;;;;5.03;2.53;;;;;;;;;;5099178;28;20447;-79
2023/06/27 12:01:16;;;;;;;5.80;2.90;;;;;;;;;;5095503;28;20443;-77
2023/06/27 12:03:53;;;;;;;3.80;2.80;;;;;;;;;;5099759;28;20996;-78
2023/06/27 12:06:44;;;;;;;2.50;2.30;;;;;;;;;;5102788;28;20440;-78
2023/06/27 12:09:24;;;;;;;2.90;2.60;;;;;;;;;;5102744;28;20967;-79
2023/06/27 12:11:54;;;;;;;7.23;2.37;;;;;;;;;;5103785;28;20491;-77
2023/06/27 12:14:26;;;;;;;7.43;2.30;;;;;;;;;;5103674;28;20479;-79
2023/06/27 12:17:10;;;;;;;4.00;2.90;;;;;;;;;;5104653;28;20474;-79
2023/06/27 12:19:40;;;;;;;2.87;2.30;;;;;;;;;;5102217;28;20444;-79
2023/06/27 12:22:10;;;;;;;2.53;2.30;;;;;;;;;;5100573;28;20467;-79
2023/06/27 12:24:38;;;;;;;2.47;2.27;;;;;;;;;;5098157;28;20436;-79
2023/06/27 12:27:09;;;;;;;3.40;2.20;;;;;;;;;;5099671;28;20459;-78
2023/06/27 12:29:36;;;;;;;3.50;2.50;;;;;;;;;;5099648;28;20566;-80
2023/06/27 12:32:04;;;;;;;3.47;2.60;;;;;;;;;;5100194;28;20449;-78
2023/06/27 12:34:41;;;;;;;3.00;2.30;;;;;;;;;;5099566;28;20922;-78
2023/06/27 12:37:10;;;;;;;2.20;2.10;;;;;;;;;;5100219;28;20518;-80
2023/06/27 12:39:38;;;;;;;6.30;2.70;;;;;;;;;;5100445;28;20447;-81
2023/06/27 12:42:08;;;;;;;3.23;2.70;;;;;;;;;;5098299;28;20480;-77
2023/06/27 12:44:37;;;;;;;4.27;2.60;;;;;;;;;;5098020;28;20834;-78
2023/06/27 12:47:05;;;;;;;2.60;2.40;;;;;;;;;;5098709;28;20850;-78
2023/06/27 12:49:37;;;;;;;3.53;2.70;;;;;;;;;;5098655;28;20471;-78
2023/06/27 12:52:14;;;;;;;3.27;2.67;;;;;;;;;;5099155;28;20433;-78
2023/06/27 12:54:52;;;;;;;3.40;2.60;;;;;;;;;;5099876;28;20432;-81
2023/06/27 12:57:21;;;;;;;2.63;2.43;;;;;;;;;;5099197;28;20485;-78
2023/06/27 12:59:49;;;;;;;2.40;2.20;;;;;;;;;;5098247;28;20440;-80
2023/06/27 13:02:21;;;;;;;2.83;2.60;;;;;;;;;;5099385;28;20516;-80
2023/06/27 13:04:52;;;;;;;3.33;2.77;;;;;;;;;;5103671;28;20448;-80
2023/06/27 13:07:21;;;;;;;6.60;2.10;;;;;;;;;;5106963;28;20479;-79
2023/06/27 13:09:53;;;;;;;2.60;2.00;;;;;;;;;;5106224;28;20562;-79
2023/06/27 13:12:28;;;;;;;7.73;3.07;;;27.00;80.70;;;;;;5106079;28;20476;-79
2023/06/27 13:15:00;;;;;;;4.50;2.40;;;26.30;82.90;;;;;;5104783;28;20503;-79
2023/06/27 13:17:30;;;;;;;4.53;2.77;;;26.00;83.70;;;;;;5109206;28;20483;-79
2023/06/27 13:20:16;;;;;;;3.13;2.27;;;25.50;84.10;;;;;;5107764;28;20535;-78
2023/06/27 13:23:05;;;;;;;6.70;3.07;;;25.00;84.30;;;;;;5113707;28;20447;-78
2023/06/27 13:28:32;;;;;;;3.30;2.43;;;25.90;82.00;;;;;;5099004;28;20520;-78
2023/06/27 13:31:06;;;;;;;3.63;2.83;;;26.30;80.90;;;;;;5099569;28;20493;-79
2023/06/27 13:33:37;;;;;;;5.27;2.90;;;26.10;81.40;;;;;;5099137;28;20558;-79
2023/06/27 13:36:08;;;;;;;3.80;2.43;;;26.20;79.00;;;;;;5100837;28;20424;-79
2023/06/27 13:38:37;;;;;;;3.07;2.47;;;26.00;80.50;;;;;;5099889;28;20451;-79
2023/06/27 13:41:15;;;;;;;2.60;2.33;;;26.20;80.30;;;;;;5100109;28;20424;-79
2023/06/27 13:43:53;;;;;;;2.80;2.50;;;26.70;78.60;;;;;;5100288;28;20475;-79
2023/06/27 13:46:26;;;;;;;2.90;2.43;;;27.00;78.10;;;;;;5103743;28;20454;-76
2023/06/27 13:49:09;;;;;;;3.80;2.60;;;26.00;78.80;;;;;;5101950;28;20428;-80
2023/06/27 13:51:42;;;;;;;2.77;2.50;;;26.20;78.90;;;;;;5102303;28;20473;-79
2023/06/27 13:54:13;;;;;;;3.03;2.70;;;25.70;78.80;;;;;;5101888;28;20491;-80
2023/06/27 13:56:50;;;;;;;2.90;2.60;;;25.20;78.70;;;;;;5102204;28;20535;-80
2023/06/27 13:59:19;;;;;;;4.47;2.43;;;25.30;78.30;;;;;;5101440;28;20439;-79
2023/06/27 14:01:57;;;;;;;3.13;2.47;;;25.60;78.30;;;;;;5099405;28;20463;-81
2023/06/27 14:07:40;;;;;;;2.70;2.10;;;26.00;76.60;;;;;;5091566;28;20440;-80
2023/06/27 14:10:09;;;;;;;3.50;2.50;;;26.40;75.60;;;;;;5100291;28;21030;-80
2023/06/27 14:12:44;;;;;;;3.70;2.50;;;27.00;73.50;;;;;;5100227;28;20463;-79
2023/06/27 14:15:28;;;;;;;;;;;;;;;;;;;;;
2023/06/27 14:20:44;;;;;;;4.03;2.23;;;27.50;70.50;;;;;;5097188;28;20440;-78
2023/06/27 14:23:13;;;;;;;4.83;2.50;;;27.00;71.60;;;;;;5101599;28;20471;-79
2023/06/27 14:25:42;;;;;;;2.80;2.27;;;27.70;72.20;;;;;;5101714;28;20436;-81
2023/06/27 14:28:16;;;;;;;5.63;2.60;;;27.40;70.00;;;;;;5101522;28;20451;-79
2023/06/27 14:30:53;;;;;;;3.73;2.30;;;26.80;71.20;;;;;;5101732;28;20502;-78
2023/06/27 14:33:21;;;;;;;4.47;2.20;;;27.00;70.70;;;;;;5106481;28;20491;-80
2023/06/27 14:36:03;;;;;;;3.47;2.03;;;26.50;70.20;;;;;;5109655;28;20440;-78
2023/06/27 14:38:44;;;;;;;3.10;2.23;;;26.70;70.80;;;;;;5110167;28;20450;-79
2023/06/27 14:41:12;;;;;;;5.50;2.00;;;27.20;69.00;;;;;;5109101;28;20502;-80
2023/06/27 14:43:47;;;;;;;4.63;2.20;;;27.50;69.30;;;;;;5108424;28;20478;-81
2023/06/27 14:46:23;;;;;;;4.53;2.33;;;27.40;69.10;;;;;;5106604;28;20508;-79
2023/06/27 14:48:53;;;;;;;2.43;2.23;;;26.70;70.00;;;;;;5111176;28;20455;-81
2023/06/27 14:51:28;;;;;;;3.53;2.47;;;26.80;70.60;;;;;;5110886;28;20510;-81
2023/06/27 14:57:16;;;;;;;3.63;2.43;;;27.70;69.30;;;;;;5098461;28;20428;-78
2023/06/27 14:59:54;;;;;;;2.57;2.37;;;27.30;68.90;;;;;;5110892;28;20448;-78
2023/06/27 15:02:35;;;;;;;2.27;2.00;;;26.60;68.40;;;;;;5109629;28;20494;-79
2023/06/27 15:05:05;;;;;;;2.90;2.20;;;26.20;70.00;;;;;;5109679;28;20472;-80
2023/06/27 15:07:39;;;;;;;3.63;2.70;;;26.60;69.50;;;;;;5102255;28;20880;-79
2023/06/27 15:10:10;;;;;;;3.03;2.60;;;27.10;69.10;;;;;;5104899;28;20984;-79
2023/06/27 15:12:40;;;;;;;2.60;2.40;;;26.90;69.10;;;;;;5103506;28;20464;-81
2023/06/27 15:15:20;;;;;;;3.07;2.37;;;26.90;69.00;;;;;;5102781;28;20448;-79
2023/06/27 15:17:55;;;;;;;2.87;2.20;;;26.80;68.80;;;;;;5102160;28;20444;-80
2023/06/27 15:20:27;;;;;;;3.80;2.80;;;26.50;69.80;;;;;;5103114;28;20451;-80
2023/06/27 15:22:54;;;;;;;3.43;2.63;;;26.00;71.80;;;;;;5101370;28;20472;-80
2023/06/27 15:25:37;;;;;;;4.83;2.60;;;26.00;73.30;;;;;;5101585;28;20475;-82
2023/06/27 15:28:08;;;;;;;3.20;2.57;;;26.00;73.30;;;;;;5100112;28;20479;-82
2023/06/27 15:30:38;;;;;;;3.10;2.33;;;25.60;73.90;;;;;;5101206;28;20823;-78
2023/06/27 15:33:10;;;;;;;3.67;2.80;;;25.20;74.90;;;;;;5098270;28;20472;-79
2023/06/27 15:35:41;;;;;;;2.50;2.30;;;25.10;75.20;;;;;;5100372;28;20458;-80
2023/06/27 15:38:12;;;;;;;2.90;2.30;;;25.20;75.10;;;;;;5101715;28;20452;-79
2023/06/27 15:40:49;;;;;;;3.60;2.73;;;25.40;75.20;;;;;;5102621;28;20433;-80
2023/06/27 15:43:21;;;;;;;7.80;2.50;;;25.60;75.00;;;;;;5101720;28;20475;-80
2023/06/27 15:45:53;;;;;;;3.70;2.87;;;25.20;75.00;;;;;;5100607;28;20448;-79
2023/06/27 15:48:24;;;;;;;2.70;2.50;;;24.90;75.70;;;;;;5099842;28;20483;-80
2023/06/27 15:50:57;;;;;;;2.97;2.40;;;24.80;75.30;;;;;;5101543;28;20475;-78
2023/06/27 15:53:30;;;;;;;4.03;2.47;;;24.50;76.50;;;;;;5101442;28;20472;-79
2023/06/27 15:56:06;;;;;;;2.87;2.60;;;24.70;77.70;;;;;;5100168;28;20504;-80
2023/06/27 15:58:45;;;;;;;3.17;2.93;;;24.90;77.80;;;;;;5098171;28;20482;-80
2023/06/27 16:01:18;;;;;;;7.00;4.83;;;25.10;77.70;;;;;;5098994;28;20440;-78
2023/06/27 16:03:49;;;;;;;2.77;2.57;;;24.80;77.90;;;;;;5100105;28;20469;-80
2023/06/27 16:06:30;;;;;;;5.40;4.90;;;24.30;78.60;;;;;;5100489;28;20427;-78
2023/06/27 16:09:10;;;;;;;5.27;4.50;;;24.30;79.50;;;;;;5100831;28;20448;-80
2023/06/27 16:11:39;;;;;;;4.03;3.30;;;24.50;79.40;;;;;;5100453;28;21000;-81
2023/06/27 16:14:10;;;;;;;2.70;2.50;;;24.40;79.50;;;;;;5099221;28;21055;-79
2023/06/27 16:16:45;;;;;;;5.37;3.07;;;24.90;79.10;;;;;;5105521;28;20444;-79
2023/06/27 16:19:25;;;;;;;7.97;3.77;;;24.90;79.40;;;;;;5103863;28;20467;-78
2023/06/27 16:22:09;;;;;;;3.40;2.70;;;24.80;79.20;;;;;;5108041;28;20508;-80
2023/06/27 16:24:56;;;;;;;4.20;2.70;;;24.50;79.70;;;;;;5106242;28;20452;-78
2023/06/27 16:27:26;;;;;;;2.93;2.60;;;25.00;80.30;;;;;;5103057;28;20449;-79
2023/06/27 16:32:48;;;;;;;3.27;2.70;;;24.30;81.00;;;;;;5103563;28;20490;-79
2023/06/27 16:35:37;;;;;;;3.17;2.70;;;24.40;81.60;;;;;;5109328;28;20481;-78
2023/06/27 16:38:21;;;;;;;4.87;3.03;;;24.40;81.70;;;;;;5108888;28;20901;-80
2023/06/27 16:41:07;;;;;;;4.47;2.80;;;24.20;82.30;;;;;;5109501;28;20428;-79
2023/06/27 16:47:18;;;;;;;3.03;2.63;;;24.00;83.40;;;;;;5046136;28;20433;-80
2023/06/27 16:53:41;;;;;;;3.20;2.60;;;23.50;84.60;;;;;;4999839;28;20507;-79
2023/06/27 17:17:13;;;;;;;;;;;;;;;;;;;;;
2023/06/27 17:23:49;;;;;;;2.77;2.57;;;24.10;84.10;;;;;;4967318;29;20509;-79
2023/06/27 17:32:42;;;;;;;3.17;2.93;;;24.10;83.50;;;;;;4785140;29;20499;-78
2023/06/27 17:35:22;;;;;;;2.80;2.60;;;24.20;83.60;;;;;;4916712;29;20952;-79
2023/06/27 17:38:01;;;;;;;3.67;2.27;;;24.10;83.80;;;;;;4966821;28;20858;-79
2023/06/27 17:40:34;;;;;;;6.20;3.00;;;23.90;83.80;;;;;;5002342;28;20436;-80
2023/06/27 17:43:27;;;;;;;4.30;2.90;;;23.80;84.50;;;;;;5081031;28;20451;-79
2023/06/27 17:46:10;;;;;;;3.60;3.23;;;23.60;85.10;;;;;;5081595;28;20502;-80
2023/06/27 17:53:05;;;;;;;2.60;2.40;;;23.60;85.30;;;;;;5054087;28;20534;-80
2023/06/27 18:06:16;;;;;;;6.13;2.57;;;23.80;85.30;;;;;;5022342;28;20503;-80
2023/06/27 18:22:56;;;;;;;6.57;3.00;;;23.20;85.80;;;;;;4850297;29;20451;-80
2023/06/27 18:29:21;;;;;;;5.53;3.40;;;23.20;85.60;;;;;;4946052;28;20482;-79
2023/06/27 18:35:13;;;;;;;3.33;2.53;;;23.40;86.10;;;;;;5071786;28;20439;-80
2023/06/27 18:38:30;;;;;;;6.67;4.20;;;23.50;86.20;;;;;;5086305;28;20451;-79
2023/06/27 18:45:44;;;;;;;4.30;3.17;;;23.30;86.00;;;;;;5031653;28;20454;-79
2023/06/27 18:48:55;;;;;;;;;;;;;;;;;;;;;
2023/06/27 18:51:37;;;;;;;4.50;2.40;;;23.30;86.30;;;;;;5038625;28;20477;-80
2023/06/27 18:54:54;;;;;;;;;;;;;;;;;;;;;
2023/06/27 19:07:35;;;;;;;2.90;2.70;;;23.20;86.30;;;;;;4875613;29;20449;-78
2023/06/27 19:10:16;;;;;;;4.40;2.80;;;23.10;86.70;;;;;;5014869;28;20445;-79
2023/06/27 19:13:31;;;;;;;3.67;3.03;;;23.00;87.50;;;;;;5090054;28;20996;-79
2023/06/27 19:16:12;;;;;;;3.87;2.80;;;23.00;87.50;;;;;;5089052;28;20472;-79